Airfield :
LOGIN :

Register | Disclaimer

   EN    FR    IT 

 










Legend :    VFR   Marginal VFR   IFR   Intensive IFR   Very Intensive IFR
Visi :
Ceiling :
>= 8 km
>= 3000ft
5 to 8 km
1000 to 3000 ft
1500m to 5 km
500 to 1000 ft
800 to 1500m
200 to 500 ft
< 800m
< 200 ft
Symbols :   Thunderstorms  Fog  Heavy snow  Heavy precipitations  Wind > 20 kt
SIGMETs :     Misc.  Thunderstorms  Icing  Turbulence  Mountain Waves  Volcanic Ashes







- Airport Elevation : 39 ft
- IATA code : SUF


LICA - Lamezia Terme

CURRENT METAR :
  • 170050Z 08011KT 9999 FEW020 19/17 Q1017

EXPIRED METARs :
  • 162350Z 07010KT 9999 FEW020 20/18 Q1017
  • 162250Z 08009KT 9999 FEW020 20/17 Q1018

TAF TAF LICA
Valid from the 17 at 00:00 until the 18 at 00:00 UTC


162300Z 1700/1724 08012KT 9999 SCT020
TEMPO 1712/1718 4000 TSRA
No reported NOTAMs for that airfield.
1 SIGMET reported for the Roma FIR (LIRR) :
 
Embedded thunderstorms
LIRR SIGMET 3 VALID 162200/170200 LIIB
LIRR ROMA FIR EMBD TS OBS WI N4125 E01204 - N3840 E00913 - N3722 E01143 - N3636 E01138 - N3639 E01311 - N3816 E01224 - N3843 E01440 - N4125 E01204 TOP FL390 STNR NC=



MET'MAP, your aeronautical weather chart ! - Copyright ORBIFLY December 2007 - Disclaimer

ORBIFLY MET'MAP TEAM :

Programming & Development : Alexandra Zaïnal
Concept & Development : Baudouin d'Aumeries
Co-Development & Prog : Marc-Olivier Méhu
Technical & hardware support : Manuel Goepfert

Contact : metmap@orbifly.com




SOURCES & CREDITS :

   NOAA